createdAt,value
2023-02-26T00:02:32.873Z,2.83
2023-02-26T00:05:18.956Z,3.00
2023-02-26T00:08:06.168Z,2.70
2023-02-26T00:10:52.009Z,3.33
2023-02-26T00:13:40.164Z,2.72
2023-02-26T00:16:36.072Z,2.85
2023-02-26T00:19:22.325Z,3.05
2023-02-26T00:22:09.336Z,2.95
2023-02-26T00:24:55.518Z,2.33
2023-02-26T00:27:41.679Z,2.45
2023-02-26T00:30:28.047Z,2.20
2023-02-26T00:33:14.299Z,2.53
2023-02-26T00:36:12.762Z,2.28
2023-02-26T00:39:36.920Z,2.30
2023-02-26T00:42:23.417Z,2.10
2023-02-26T00:45:10.341Z,2.00
2023-02-26T00:48:23.237Z,2.10
2023-02-26T00:51:16.706Z,1.90
2023-02-26T00:54:13.504Z,1.88
2023-02-26T00:57:00.357Z,2.30
2023-02-26T00:59:46.310Z,1.67
2023-02-26T01:02:32.767Z,1.80
2023-02-26T01:05:19.555Z,1.65
2023-02-26T01:08:15.602Z,1.73
2023-02-26T01:11:02.125Z,1.55
2023-02-26T01:13:48.255Z,1.60
2023-02-26T01:16:58.280Z,1.50
2023-02-26T01:20:00.642Z,1.13
2023-02-26T01:22:55.703Z,1.25
2023-02-26T01:25:43.789Z,0.95
2023-02-26T01:28:30.401Z,1.52
2023-02-26T01:31:47.031Z,1.40
2023-02-26T01:34:47.429Z,1.17
2023-02-26T01:37:53.082Z,1.33
2023-02-26T01:41:04.873Z,1.30
2023-02-26T01:44:04.770Z,1.33
2023-02-26T01:47:15.030Z,1.30
2023-02-26T01:50:14.873Z,1.23
2023-02-26T01:53:21.111Z,1.13
2023-02-26T01:56:17.355Z,1.30
2023-02-26T01:59:06.674Z,0.98
2023-02-26T02:01:54.912Z,1.30
2023-02-26T02:04:42.344Z,1.00
2023-02-26T02:07:28.164Z,1.05
2023-02-26T02:10:14.507Z,1.10
2023-02-26T02:13:18.941Z,1.13
2023-02-26T02:16:47.427Z,1.33
2023-02-26T02:19:39.530Z,1.00
2023-02-26T02:22:47.148Z,1.10
2023-02-26T02:25:57.891Z,1.30
2023-02-26T02:29:08.625Z,1.35
2023-02-26T02:32:21.905Z,1.00
2023-02-26T02:35:32.208Z,1.02
2023-02-26T02:38:26.585Z,1.20
2023-02-26T02:41:51.158Z,1.23
2023-02-26T02:44:41.939Z,1.40
2023-02-26T02:47:31.182Z,1.42
2023-02-26T02:50:29.887Z,1.23
2023-02-26T02:53:24.617Z,1.30
2023-02-26T02:56:55.592Z,1.23
2023-02-26T02:59:45.612Z,1.52
2023-02-26T03:02:43.947Z,1.30
2023-02-26T03:05:30.208Z,1.65
2023-02-26T03:08:21.251Z,1.60
2023-02-26T03:11:08.087Z,1.55
2023-02-26T03:13:55.333Z,1.60
2023-02-26T03:17:04.232Z,1.58
2023-02-26T03:20:13.596Z,1.30
2023-02-26T03:23:35.616Z,1.30
2023-02-26T03:27:03.417Z,1.10
2023-02-26T03:30:05.089Z,1.20
2023-02-26T03:33:17.946Z,1.70
2023-02-26T03:36:26.409Z,1.60
2023-02-26T03:39:47.153Z,1.65
2023-02-26T03:42:49.602Z,1.40
2023-02-26T03:45:37.892Z,1.50
2023-02-26T03:48:29.038Z,1.50
2023-02-26T03:51:18.341Z,1.50
2023-02-26T03:54:58.459Z,1.63
2023-02-26T03:58:03.025Z,1.65
2023-02-26T04:01:23.286Z,1.50
2023-02-26T04:04:32.826Z,1.33
2023-02-26T04:07:20.055Z,1.20
2023-02-26T04:10:09.043Z,1.42
2023-02-26T04:13:02.869Z,1.40
2023-02-26T04:15:48.604Z,2.15
2023-02-26T04:18:34.675Z,1.50
2023-02-26T04:21:23.554Z,1.25
2023-02-26T04:24:09.801Z,2.05
2023-02-26T04:26:55.630Z,2.10
2023-02-26T04:29:41.649Z,1.80
2023-02-26T04:32:27.606Z,2.00
2023-02-26T04:35:14.644Z,1.63
2023-02-26T04:38:00.970Z,2.08
2023-02-26T04:40:47.282Z,1.65
2023-02-26T04:43:34.096Z,1.83
2023-02-26T04:46:58.558Z,1.73
2023-02-26T04:49:44.194Z,1.63
2023-02-26T04:52:30.815Z,1.77
2023-02-26T04:55:18.318Z,1.48
2023-02-26T04:58:04.907Z,2.13
2023-02-26T05:00:53.668Z,2.10
2023-02-26T05:03:39.922Z,1.98
2023-02-26T05:06:26.233Z,1.77
2023-02-26T05:09:12.348Z,2.10
2023-02-26T05:11:58.494Z,1.80
2023-02-26T05:14:44.502Z,1.90
2023-02-26T05:17:30.517Z,2.28
2023-02-26T05:20:16.706Z,2.22
2023-02-26T05:23:04.523Z,2.10
2023-02-26T05:25:50.950Z,2.10
2023-02-26T05:28:38.165Z,2.28
2023-02-26T05:31:24.561Z,2.25
2023-02-26T05:34:10.827Z,2.08
2023-02-26T05:36:57.067Z,2.20
2023-02-26T05:39:43.097Z,2.70
2023-02-26T05:42:29.189Z,2.20
2023-02-26T05:45:15.028Z,1.90
2023-02-26T05:48:01.130Z,1.90
2023-02-26T05:50:49.234Z,2.30
2023-02-26T05:53:35.404Z,2.45
2023-02-26T05:56:21.687Z,2.03
2023-02-26T05:59:07.665Z,2.45
2023-02-26T06:01:53.988Z,2.65
2023-02-26T06:04:40.078Z,2.05
2023-02-26T06:07:25.986Z,2.58
2023-02-26T06:10:12.667Z,2.20
2023-02-26T06:12:58.934Z,2.20
2023-02-26T06:15:45.238Z,2.55
2023-02-26T06:18:32.407Z,2.30
2023-02-26T06:21:19.216Z,2.58
2023-02-26T06:24:05.778Z,2.50
2023-02-26T06:26:51.617Z,2.50
2023-02-26T06:29:37.801Z,2.05
2023-02-26T06:32:23.927Z,2.05
2023-02-26T06:35:10.211Z,2.70
2023-02-26T06:37:57.284Z,2.33
2023-02-26T06:40:44.460Z,2.38
2023-02-26T06:43:30.548Z,2.70
2023-02-26T06:46:16.656Z,3.10
2023-02-26T06:49:02.740Z,2.53
2023-02-26T06:51:48.678Z,2.40
2023-02-26T06:54:34.866Z,2.60
2023-02-26T06:57:20.977Z,2.13
2023-02-26T07:00:08.876Z,1.88
2023-02-26T07:02:54.423Z,2.25
2023-02-26T07:05:40.422Z,2.10
2023-02-26T07:08:26.510Z,2.08
2023-02-26T07:11:12.675Z,1.90
2023-02-26T07:13:58.642Z,2.25
2023-02-26T07:16:44.679Z,2.40
2023-02-26T07:19:30.897Z,2.13
2023-02-26T07:22:17.684Z,2.35
2023-02-26T07:25:05.518Z,2.22
2023-02-26T07:27:52.349Z,2.20
2023-02-26T07:30:38.487Z,1.90
2023-02-26T07:33:25.190Z,2.22
2023-02-26T07:36:11.268Z,2.38
2023-02-26T07:38:57.562Z,2.20
2023-02-26T07:41:43.386Z,2.20
2023-02-26T07:44:34.261Z,2.50
2023-02-26T07:47:20.112Z,2.33
2023-02-26T07:50:06.463Z,1.98
2023-02-26T07:52:53.553Z,2.60
2023-02-26T07:55:39.155Z,2.42
2023-02-26T07:58:25.142Z,2.03
2023-02-26T08:01:11.016Z,2.20
2023-02-26T08:03:57.268Z,2.00
2023-02-26T08:06:43.059Z,1.92
2023-02-26T08:09:30.713Z,1.77
2023-02-26T08:12:16.948Z,1.60
2023-02-26T08:15:04.000Z,2.10
2023-02-26T08:17:52.989Z,2.35
2023-02-26T08:20:38.491Z,2.03
2023-02-26T08:23:24.634Z,2.10
2023-02-26T08:26:13.633Z,2.03
2023-02-26T08:28:59.733Z,1.92
2023-02-26T08:31:46.246Z,2.50
2023-02-26T08:34:32.566Z,2.60
2023-02-26T08:37:18.610Z,2.05
2023-02-26T08:40:07.200Z,2.40
2023-02-26T08:42:53.266Z,2.15
2023-02-26T08:45:39.212Z,2.30
2023-02-26T08:48:25.479Z,2.22
2023-02-26T08:51:11.964Z,2.20
2023-02-26T08:53:58.482Z,2.33
2023-02-26T08:56:44.729Z,2.05
2023-02-26T08:59:30.903Z,2.03
2023-02-26T09:02:16.951Z,2.05
2023-02-26T09:05:03.002Z,1.98
2023-02-26T09:07:49.179Z,2.25
2023-02-26T09:10:35.413Z,2.08
2023-02-26T09:13:22.003Z,2.00
2023-02-26T09:16:09.093Z,2.20
2023-02-26T09:18:55.570Z,2.25
2023-02-26T09:21:42.359Z,1.80
2023-02-26T09:24:28.513Z,2.20
2023-02-26T09:27:14.433Z,2.03
2023-02-26T09:30:00.514Z,1.92
2023-02-26T09:32:47.207Z,2.00
2023-02-26T09:35:33.793Z,1.92
2023-02-26T09:38:20.362Z,1.90
2023-02-26T09:41:10.047Z,2.20
2023-02-26T09:44:16.858Z,1.52
2023-02-26T09:47:12.490Z,1.88
2023-02-26T09:50:09.981Z,1.77
2023-02-26T09:53:05.375Z,2.42
2023-02-26T09:55:54.199Z,2.20
2023-02-26T09:58:41.696Z,1.88
2023-02-26T10:01:38.924Z,1.83
2023-02-26T10:05:15.729Z,2.10
2023-02-26T10:08:18.010Z,2.22
2023-02-26T10:11:16.980Z,2.00
2023-02-26T10:14:30.602Z,1.52
2023-02-26T10:17:32.358Z,1.42
2023-02-26T10:20:31.096Z,1.67
2023-02-26T10:23:29.167Z,1.23
2023-02-26T10:26:18.011Z,1.40
2023-02-26T10:29:23.433Z,1.60
2023-02-26T10:32:23.046Z,1.30
2023-02-26T10:35:09.968Z,1.17
2023-02-26T10:38:04.702Z,1.33
2023-02-26T10:40:55.629Z,1.20
2023-02-26T10:43:45.200Z,1.40
2023-02-26T10:47:19.450Z,1.30
2023-02-26T10:50:15.064Z,1.25
2023-02-26T10:53:01.103Z,1.40
2023-02-26T10:56:08.683Z,1.10
2023-02-26T10:58:55.174Z,1.20
2023-02-26T11:01:41.552Z,1.38
2023-02-26T11:04:28.188Z,1.33
2023-02-26T11:07:14.726Z,1.40
2023-02-26T11:10:00.985Z,1.65
2023-02-26T11:12:47.450Z,1.67
2023-02-26T11:15:33.380Z,1.60
2023-02-26T11:18:24.980Z,1.77
2023-02-26T11:21:27.178Z,1.85
2023-02-26T11:24:28.419Z,1.80
2023-02-26T11:27:19.719Z,1.77
2023-02-26T11:30:20.182Z,1.88
2023-02-26T11:33:29.748Z,1.77
2023-02-26T11:36:20.723Z,1.90
2023-02-26T11:39:15.838Z,1.75
2023-02-26T11:42:02.895Z,2.10
2023-02-26T11:44:51.103Z,1.92
2023-02-26T11:47:37.174Z,1.83
2023-02-26T11:50:23.928Z,1.90
2023-02-26T11:53:19.270Z,1.90
2023-02-26T11:56:13.342Z,1.30
2023-02-26T11:59:08.733Z,1.52
2023-02-26T12:01:54.748Z,1.45
2023-02-26T12:04:45.407Z,1.58
2023-02-26T12:07:31.675Z,1.45
2023-02-26T12:10:41.530Z,1.58
2023-02-26T12:14:03.877Z,1.52
2023-02-26T12:17:17.464Z,1.67
2023-02-26T12:20:17.438Z,1.50
2023-02-26T12:23:34.223Z,1.58
2023-02-26T12:26:31.955Z,1.58
2023-02-26T12:29:40.047Z,1.83
2023-02-26T12:32:50.984Z,1.67
2023-02-26T12:35:43.798Z,1.33
2023-02-26T12:38:35.900Z,1.35
2023-02-26T12:41:44.370Z,1.63
2023-02-26T12:45:08.632Z,1.83
2023-02-26T12:48:00.652Z,1.70
2023-02-26T12:50:58.844Z,1.60
2023-02-26T12:54:12.231Z,1.60
2023-02-26T12:57:18.390Z,1.90
2023-02-26T13:00:17.306Z,1.55
2023-02-26T13:03:29.988Z,1.67
2023-02-26T13:06:18.834Z,1.90
2023-02-26T13:09:39.156Z,1.70
2023-02-26T13:13:04.926Z,2.03
2023-02-26T13:16:01.740Z,1.90
2023-02-26T13:19:02.764Z,2.00
2023-02-26T13:21:57.652Z,1.80
2023-02-26T13:25:18.247Z,2.05
2023-02-26T13:28:17.556Z,1.98
2023-02-26T13:31:05.017Z,1.40
2023-02-26T13:33:55.182Z,1.50
2023-02-26T13:36:42.251Z,1.42
2023-02-26T13:40:08.461Z,1.60
2023-02-26T13:43:21.204Z,1.70
2023-02-26T13:46:09.890Z,1.77
2023-02-26T13:49:20.526Z,1.90
2023-02-26T13:52:22.129Z,1.60
2023-02-26T13:55:46.900Z,1.92
2023-02-26T13:58:39.937Z,1.70
2023-02-26T14:01:34.822Z,2.03
2023-02-26T14:04:23.796Z,1.73
2023-02-26T14:07:16.801Z,1.55
2023-02-26T14:10:13.691Z,1.48
2023-02-26T14:13:35.060Z,1.75
2023-02-26T14:16:29.077Z,1.88
2023-02-26T14:19:36.681Z,2.15
2023-02-26T14:22:25.991Z,2.00
2023-02-26T14:25:22.812Z,2.42
2023-02-26T14:28:29.524Z,2.45
2023-02-26T14:31:20.027Z,2.50
2023-02-26T14:34:15.838Z,2.13
2023-02-26T14:37:07.175Z,2.13
2023-02-26T14:40:07.199Z,2.15
2023-02-26T14:43:03.780Z,2.20
2023-02-26T14:45:51.116Z,2.30
2023-02-26T14:48:38.818Z,2.22
2023-02-26T14:51:47.908Z,2.05
2023-02-26T14:54:48.825Z,2.25
2023-02-26T14:58:05.172Z,2.08
2023-02-26T15:01:20.875Z,2.40
2023-02-26T15:04:43.131Z,2.45
2023-02-26T15:07:40.417Z,2.45
2023-02-26T15:11:11.108Z,2.10
2023-02-26T15:14:20.750Z,1.88
2023-02-26T15:17:12.440Z,2.05
2023-02-26T15:20:45.738Z,2.10
2023-02-26T15:23:44.758Z,2.10
2023-02-26T15:26:51.127Z,1.95
2023-02-26T15:29:41.348Z,2.10
2023-02-26T15:32:30.437Z,1.75
2023-02-26T15:35:24.655Z,1.60
2023-02-26T15:38:11.280Z,1.75
2023-02-26T15:41:03.949Z,2.13
2023-02-26T15:43:53.922Z,2.00
2023-02-26T15:46:46.195Z,2.00
2023-02-26T15:49:44.595Z,1.90
2023-02-26T15:52:30.882Z,2.05
2023-02-26T15:55:18.458Z,1.83
2023-02-26T15:58:07.253Z,1.63
2023-02-26T16:00:55.222Z,2.05
2023-02-26T16:03:41.484Z,2.08
2023-02-26T16:06:36.663Z,2.17
2023-02-26T16:09:28.110Z,2.30
2023-02-26T16:12:20.542Z,2.20
2023-02-26T16:15:14.338Z,1.70
2023-02-26T16:18:03.977Z,2.22
2023-02-26T16:20:55.967Z,1.80
2023-02-26T16:23:47.821Z,2.38
2023-02-26T16:26:40.878Z,2.30
2023-02-26T16:29:30.454Z,2.53
2023-02-26T16:32:18.247Z,2.33
2023-02-26T16:35:17.674Z,2.42
2023-02-26T16:38:25.885Z,1.92
2023-02-26T16:41:13.595Z,2.00
2023-02-26T16:44:02.764Z,2.10
2023-02-26T16:46:53.007Z,2.20
2023-02-26T16:49:41.646Z,1.90
2023-02-26T16:52:27.670Z,2.30
2023-02-26T16:55:18.708Z,2.15
2023-02-26T16:58:07.886Z,1.70
2023-02-26T17:01:03.026Z,1.90
2023-02-26T17:03:58.846Z,1.90
2023-02-26T17:06:45.203Z,2.00
2023-02-26T17:09:31.137Z,2.17
2023-02-26T17:12:23.320Z,1.85
2023-02-26T17:15:36.004Z,2.03
2023-02-26T17:18:21.844Z,2.03
2023-02-26T17:21:10.173Z,1.70
2023-02-26T17:23:56.639Z,2.20
2023-02-26T17:26:42.600Z,1.85
2023-02-26T17:29:37.522Z,2.20
2023-02-26T17:32:27.990Z,1.95
2023-02-26T17:35:16.242Z,1.85
2023-02-26T17:38:02.257Z,1.90
2023-02-26T17:40:48.354Z,2.15
2023-02-26T17:43:34.536Z,1.48
2023-02-26T17:46:20.750Z,1.88
2023-02-26T17:49:06.943Z,2.10
2023-02-26T17:51:54.632Z,1.70
2023-02-26T17:54:40.743Z,1.65
2023-02-26T17:57:28.040Z,1.48
2023-02-26T18:00:15.745Z,1.42
2023-02-26T18:03:02.017Z,1.77
2023-02-26T18:05:49.493Z,1.70
2023-02-26T18:08:36.563Z,1.80
2023-02-26T18:11:26.147Z,1.80
2023-02-26T18:14:12.477Z,1.55
2023-02-26T18:16:59.822Z,1.77
2023-02-26T18:19:47.777Z,1.92
2023-02-26T18:22:34.437Z,1.77
2023-02-26T18:25:21.231Z,1.50
2023-02-26T18:28:07.683Z,1.40
2023-02-26T18:30:54.303Z,1.80
2023-02-26T18:33:41.523Z,1.30
2023-02-26T18:36:34.627Z,1.77
2023-02-26T18:39:25.270Z,1.40
2023-02-26T18:42:22.267Z,1.60
2023-02-26T18:45:09.394Z,1.60
2023-02-26T18:47:55.253Z,1.60
2023-02-26T18:50:41.654Z,1.73
2023-02-26T18:53:27.813Z,1.70
2023-02-26T18:56:13.825Z,1.92
2023-02-26T18:58:59.865Z,2.28
2023-02-26T19:01:46.134Z,1.50
2023-02-26T19:04:32.687Z,1.73
2023-02-26T19:07:19.626Z,1.60
2023-02-26T19:10:15.237Z,1.67
2023-02-26T19:13:01.689Z,1.85
2023-02-26T19:15:47.928Z,4.07
2023-02-26T19:18:34.600Z,7.65
2023-02-26T19:21:20.425Z,8.95
2023-02-26T19:24:08.953Z,5.75
2023-02-26T19:26:56.255Z,7.85
2023-02-26T19:29:42.331Z,3.60
2023-02-26T19:32:28.792Z,3.83
2023-02-26T19:35:15.057Z,3.00
2023-02-26T19:38:01.286Z,2.00
2023-02-26T19:40:47.345Z,2.40
2023-02-26T19:43:33.478Z,2.10
2023-02-26T19:46:19.554Z,1.83
2023-02-26T19:49:05.866Z,1.98
2023-02-26T19:51:52.484Z,2.10
2023-02-26T19:54:38.414Z,1.80
2023-02-26T19:57:24.799Z,2.22
2023-02-26T20:00:13.516Z,1.80
2023-02-26T20:02:59.372Z,1.80
2023-02-26T20:05:56.182Z,2.00
2023-02-26T20:08:42.168Z,2.20
2023-02-26T20:11:28.752Z,2.00
2023-02-26T20:14:14.930Z,1.90
2023-02-26T20:17:00.852Z,1.80
2023-02-26T20:19:47.544Z,2.10
2023-02-26T20:22:33.567Z,1.95
2023-02-26T20:25:20.031Z,1.50
2023-02-26T20:28:06.206Z,1.85
2023-02-26T20:30:52.755Z,1.70
2023-02-26T20:33:39.667Z,2.13
2023-02-26T20:36:25.488Z,2.10
2023-02-26T20:39:12.076Z,1.80
2023-02-26T20:41:58.183Z,1.92
2023-02-26T20:44:44.508Z,1.80
2023-02-26T20:47:30.554Z,1.33
2023-02-26T20:50:17.002Z,1.90
2023-02-26T20:53:04.227Z,2.10
2023-02-26T20:55:50.354Z,1.88
2023-02-26T20:58:38.496Z,2.03
2023-02-26T21:01:24.538Z,1.90
2023-02-26T21:04:10.878Z,1.92
2023-02-26T21:07:12.729Z,2.13
2023-02-26T21:09:59.051Z,1.90
2023-02-26T21:12:45.162Z,1.77
2023-02-26T21:15:31.110Z,2.30
2023-02-26T21:18:17.443Z,2.03
2023-02-26T21:21:05.080Z,1.73
2023-02-26T21:23:53.207Z,1.98
2023-02-26T21:26:40.100Z,1.85
2023-02-26T21:29:25.869Z,2.05
2023-02-26T21:32:11.922Z,2.10
2023-02-26T21:34:59.023Z,1.90
2023-02-26T21:37:45.260Z,2.30
2023-02-26T21:40:32.144Z,2.20
2023-02-26T21:43:18.302Z,2.15
2023-02-26T21:46:05.155Z,1.90
2023-02-26T21:48:51.688Z,2.25
2023-02-26T21:51:37.611Z,1.67
2023-02-26T21:54:24.110Z,2.28
2023-02-26T21:57:11.385Z,2.22
2023-02-26T21:59:56.951Z,2.10
2023-02-26T22:02:44.199Z,1.98
2023-02-26T22:05:30.368Z,2.05
2023-02-26T22:08:16.575Z,1.95
2023-02-26T22:11:02.644Z,1.90
2023-02-26T22:14:08.653Z,2.10
2023-02-26T22:16:54.745Z,2.00
2023-02-26T22:19:40.804Z,2.25
2023-02-26T22:22:27.148Z,2.20
2023-02-26T22:25:13.445Z,2.08
2023-02-26T22:27:59.884Z,2.15
2023-02-26T22:30:45.979Z,2.22
2023-02-26T22:33:32.261Z,2.42
2023-02-26T22:36:18.194Z,2.13
2023-02-26T22:39:06.100Z,2.10
2023-02-26T22:41:52.006Z,2.20
2023-02-26T22:44:38.111Z,2.38
2023-02-26T22:47:24.559Z,2.20
2023-02-26T22:50:11.651Z,2.28
2023-02-26T22:52:57.808Z,2.45
2023-02-26T22:55:43.996Z,1.80
2023-02-26T22:58:30.157Z,2.33
2023-02-26T23:01:16.099Z,2.20
2023-02-26T23:04:02.399Z,2.60
2023-02-26T23:06:48.444Z,2.75
2023-02-26T23:09:34.755Z,2.55
2023-02-26T23:12:20.653Z,2.40
2023-02-26T23:15:08.298Z,2.47
2023-02-26T23:17:54.158Z,2.28
2023-02-26T23:20:40.427Z,2.20
2023-02-26T23:23:26.827Z,2.53
2023-02-26T23:26:13.357Z,2.30
2023-02-26T23:28:59.441Z,2.35
2023-02-26T23:31:45.635Z,2.40
2023-02-26T23:34:31.550Z,2.53
2023-02-26T23:37:17.600Z,2.65
2023-02-26T23:40:04.223Z,2.90
2023-02-26T23:42:50.738Z,2.28
2023-02-26T23:45:36.884Z,2.47
2023-02-26T23:48:24.932Z,2.40
2023-02-26T23:51:10.718Z,2.88
2023-02-26T23:53:56.701Z,2.53
2023-02-26T23:56:42.815Z,2.70
2023-02-26T23:59:28.710Z,2.20
